SIWD weather

CLOSED Fazenda Cinco Estrelas Airport
Apiacás, Mato Grosso, Brazil

Public forecast

Using degrees Celsius for public forecast. Weather courtesy of forecast.io.

Closest aviation weather report (METAR) to Fazenda Cinco Estrelas Airport

Report is more than 2 hours old.

Closest report is Piloto Osvaldo Marques Dias Airport, 149.0 nm (275.9 km) SE. Retrieved 2020/07/15 02:00 UTC (3 hours ago):

SBAT 150200Z 15003KT CAVOK 22/09 Q1015

Closest aviation forecast (TAF) to Fazenda Cinco Estrelas Airport

Closest forecast is Piloto Osvaldo Marques Dias Airport, 149.0 nm (275.9 km) SE. Retrieved 2020-07-15 00:42 UTC (5 hours ago):

TAF TAF SBAT 142100Z 1500/1512 16006KT 9999 FEW040 TN24/1506Z TX28/1512Z RMK PCO